Time;durP1;ratioP1;P1;durP2;ratioP2;P2;SDS_P1;SDS_P2;PMS_P1;PMS_P2;Temp;Humidity;BMP_temperature;BMP_pressure;BME280_temperature;BME280_humidity;BME280_pressure;Samples;Min_cycle;Max_cycle;Signal;HPM_P1;HPM_P2
2024/02/18 00:00:20;;;;;;;17.00;10.80;;;;;;;4.39;79.70;96729.96;106656;1266;22582;-73
2024/02/18 00:03:09;;;;;;;16.30;10.00;;;;;;;4.37;80.69;96728.35;106161;1276;434507;-73
2024/02/18 00:05:37;;;;;;;19.50;10.00;;;;;;;4.29;80.14;96726.59;106590;1276;25678;-73
2024/02/18 00:08:06;;;;;;;17.50;12.50;;;;;;;4.29;79.96;96733.05;106619;1276;25397;-73
2024/02/18 00:10:34;;;;;;;16.30;10.80;;;;;;;4.31;80.14;96731.53;106615;1276;22533;-73
2024/02/18 00:13:05;;;;;;;16.30;10.00;;;;;;;4.36;79.69;96734.95;106584;1276;25249;-73
2024/02/18 00:15:34;;;;;;;16.00;10.70;;;;;;;4.36;79.25;96729.73;106616;1276;24299;-73
2024/02/18 00:18:02;;;;;;;14.50;9.70;;;;;;;4.34;80.86;96730.05;106420;1276;22761;-73
2024/02/18 00:20:31;;;;;;;15.80;10.10;;;;;;;4.31;80.58;96732.39;106556;1276;25316;-73
2024/02/18 00:23:01;;;;;;;20.20;13.10;;;;;;;4.29;81.04;96729.74;106758;1276;25297;-73
2024/02/18 00:25:29;;;;;;;21.70;13.10;;;;;;;4.31;81.21;96728.55;106762;1270;23037;-73
2024/02/18 00:27:57;;;;;;;23.00;14.40;;;;;;;4.31;81.30;96727.36;106664;1276;22526;-73
2024/02/18 00:30:26;;;;;;;19.60;12.70;;;;;;;4.32;81.63;96726.85;106610;1276;22514;-73
2024/02/18 00:32:55;;;;;;;17.30;11.00;;;;;;;4.32;81.72;96721.44;106600;1276;24222;-73
2024/02/18 00:35:23;;;;;;;15.20;10.60;;;;;;;4.30;81.38;96719.13;106665;1276;24219;-73
2024/02/18 00:37:51;;;;;;;16.50;11.00;;;;;;;4.25;81.42;96719.37;106596;1276;22527;-73
2024/02/18 00:40:24;;;;;;;15.60;9.70;;;;;;;4.26;81.46;96720.95;106632;1253;23017;-73
2024/02/18 00:42:52;;;;;;;17.50;11.30;;;;;;;4.26;81.95;96713.99;106678;1276;22667;-73
2024/02/18 00:45:20;;;;;;;19.40;10.60;;;;;;;4.34;82.25;96711.05;106611;1260;24209;-73
2024/02/18 00:47:49;;;;;;;14.00;9.70;;;;;;;4.41;82.19;96714.48;106590;1276;25376;-73
2024/02/18 00:50:17;;;;;;;16.10;9.80;;;;;;;4.37;81.28;96710.94;106683;1256;25400;-73
2024/02/18 00:52:45;;;;;;;20.50;11.40;;;;;;;4.31;81.51;96709.23;106600;1261;24222;-73
2024/02/18 00:55:14;;;;;;;15.90;10.20;;;;;;;4.30;81.61;96707.98;106593;1276;22523;-73
2024/02/18 00:57:42;;;;;;;13.70;9.30;;;;;;;4.30;82.01;96708.34;106727;1276;22645;-73
2024/02/18 01:00:12;;;;;;;19.30;12.60;;;;;;;4.29;81.55;96708.32;106629;1276;24417;-73
2024/02/18 01:02:40;;;;;;;16.80;10.20;;;;;;;4.28;81.68;96706.56;106727;1276;24406;-73
2024/02/18 01:05:08;;;;;;;16.80;9.40;;;;;;;4.31;81.45;96707.50;106733;1270;23153;-73
2024/02/18 01:07:37;;;;;;;14.30;9.90;;;;;;;4.39;81.64;96707.49;106600;1276;22515;-73
2024/02/18 01:10:06;;;;;;;19.20;11.30;;;;;;;4.42;81.46;96705.30;106664;1276;22559;-73
2024/02/18 01:12:35;;;;;;;15.10;10.30;;;;;;;4.49;81.69;96711.72;106675;1276;24369;-73
2024/02/18 01:15:04;;;;;;;16.50;10.40;;;;;;;4.56;81.48;96705.79;106606;1276;23008;-73
2024/02/18 01:17:32;;;;;;;17.50;9.80;;;;;;;4.52;81.43;96702.91;106680;1276;22783;-73
2024/02/18 01:20:00;;;;;;;16.30;10.30;;;;;;;4.47;81.13;96702.98;106606;1276;22641;-73
2024/02/18 01:22:29;;;;;;;21.40;12.70;;;;;;;4.40;81.14;96698.29;106629;1276;25520;-73
2024/02/18 01:24:58;;;;;;;14.40;9.60;;;;;;;4.43;81.29;96697.29;106695;1276;24313;-73
2024/02/18 01:27:26;;;;;;;19.00;11.60;;;;;;;4.43;81.17;96695.05;106629;1276;25262;-73
2024/02/18 01:29:55;;;;;;;15.20;10.10;;;;;;;4.43;81.28;96697.64;106620;1276;23069;-73
2024/02/18 01:32:23;;;;;;;17.70;10.30;;;;;;;4.43;81.85;96694.33;106484;1276;23949;-73
2024/02/18 01:34:54;;;;;;;17.20;10.30;;;;;;;4.44;82.19;96700.64;106635;1276;22632;-73
2024/02/18 01:37:22;;;;;;;14.20;9.10;;;;;;;4.48;81.91;96697.96;106622;1276;22530;-73
2024/02/18 01:39:50;;;;;;;13.80;9.50;;;;;;;4.48;81.88;96700.55;106643;1276;22609;-73
2024/02/18 01:42:19;;;;;;;16.50;10.40;;;;;;;4.47;81.50;96695.14;106670;1276;25479;-73
2024/02/18 01:44:47;;;;;;;15.40;9.90;;;;;;;4.46;82.06;96697.55;106663;1276;24225;-73
2024/02/18 01:47:16;;;;;;;17.20;10.70;;;;;;;4.40;81.32;96697.23;106673;1276;22642;-73
2024/02/18 01:49:44;;;;;;;17.00;10.30;;;;;;;4.38;81.44;96699.98;106573;1276;22531;-73
2024/02/18 01:52:13;;;;;;;21.50;11.20;;;;;;;4.39;81.53;96695.98;106666;1276;22531;-73
2024/02/18 01:54:41;;;;;;;15.90;10.20;;;;;;;4.46;81.75;96697.03;106677;1276;24224;-73
2024/02/18 01:57:09;;;;;;;18.60;11.90;;;;;;;4.52;81.52;96698.90;106607;1276;25315;-73
2024/02/18 01:59:40;;;;;;;18.00;12.30;;;;;;;4.54;81.56;96699.64;106625;1276;23143;-73
2024/02/18 02:02:08;;;;;;;16.30;10.80;;;;;;;4.53;81.43;96698.05;106606;1276;22633;-73
2024/02/18 02:04:37;;;;;;;16.80;10.60;;;;;;;4.45;81.03;96700.15;106599;1276;24437;-73
2024/02/18 02:07:07;;;;;;;14.80;10.90;;;;;;;4.46;81.39;96700.69;106791;1276;25339;-73
2024/02/18 02:09:36;;;;;;;17.90;11.30;;;;;;;4.45;81.37;96701.36;106716;1276;22637;-73
2024/02/18 02:12:05;;;;;;;15.00;10.60;;;;;;;4.47;81.72;96701.91;106671;1276;23905;-73
2024/02/18 02:14:34;;;;;;;14.80;10.70;;;;;;;4.42;81.65;96705.83;106676;1276;22643;-73
2024/02/18 02:17:02;;;;;;;16.20;10.30;;;;;;;4.33;81.07;96705.78;106606;1276;22537;-73
2024/02/18 02:19:31;;;;;;;17.00;10.00;;;;;;;4.29;82.00;96715.97;106670;1276;22531;-73
2024/02/18 02:21:59;;;;;;;14.70;10.00;;;;;;;4.27;81.65;96717.31;106648;1276;22638;-73
2024/02/18 02:24:27;;;;;;;16.10;10.40;;;;;;;4.24;81.70;96719.87;106636;1276;25396;-73
2024/02/18 02:26:56;;;;;;;21.80;14.20;;;;;;;4.21;82.15;96718.55;106666;1276;25329;-73
2024/02/18 02:29:24;;;;;;;20.30;13.30;;;;;;;4.22;82.19;96721.02;106694;1276;24601;-73
2024/02/18 02:31:53;;;;;;;19.40;12.60;;;;;;;4.27;81.75;96722.71;106597;1276;25479;-73
2024/02/18 02:34:25;;;;;;;19.50;12.30;;;;;;;4.29;81.51;96721.89;106742;1276;24072;-73
2024/02/18 02:36:53;;;;;;;20.50;13.00;;;;;;;4.31;81.25;96718.30;106621;1276;22533;-73
2024/02/18 02:39:22;;;;;;;17.90;11.00;;;;;;;4.33;80.72;96719.38;106606;1276;25443;-73
2024/02/18 02:41:51;;;;;;;14.80;10.40;;;;;;;4.36;80.47;96715.79;106665;1276;22595;-73
2024/02/18 02:44:19;;;;;;;14.90;9.50;;;;;;;4.38;80.70;96719.49;106592;1276;24333;-73
2024/02/18 02:46:48;;;;;;;16.60;10.20;;;;;;;4.38;80.80;96721.23;106616;1276;22547;-73
2024/02/18 02:49:17;;;;;;;14.50;10.20;;;;;;;4.37;81.20;96719.48;106733;1276;23887;-73
2024/02/18 02:51:45;;;;;;;15.30;10.10;;;;;;;4.38;81.52;96718.98;106680;1276;22777;-73
2024/02/18 02:54:13;;;;;;;15.30;10.40;;;;;;;4.33;81.63;96720.95;106600;1276;22516;-73
2024/02/18 02:56:42;;;;;;;22.20;13.00;;;;;;;4.30;81.79;96722.62;106658;1253;24196;-73
2024/02/18 02:59:10;;;;;;;21.60;13.60;;;;;;;4.33;81.74;96723.39;106582;1276;25395;-73
2024/02/18 03:01:38;;;;;;;17.80;12.40;;;;;;;4.30;81.38;96720.37;106606;1276;23077;-73
2024/02/18 03:04:07;;;;;;;15.40;10.20;;;;;;;4.29;81.27;96723.30;106625;1276;23000;-73
2024/02/18 03:06:36;;;;;;;17.90;11.30;;;;;;;4.29;81.21;96724.34;106668;1276;24350;-73
2024/02/18 03:09:04;;;;;;;20.70;13.10;;;;;;;4.28;81.12;96727.42;106594;1276;22527;-73
2024/02/18 03:11:33;;;;;;;17.80;12.00;;;;;;;4.32;81.43;96727.19;106469;1276;22531;-73
2024/02/18 03:14:01;;;;;;;17.10;10.20;;;;;;;4.39;81.45;96733.09;106632;1276;22542;-73
2024/02/18 03:16:29;;;;;;;20.20;12.70;;;;;;;4.41;81.18;96736.09;106664;1276;22516;-73
2024/02/18 03:18:57;;;;;;;18.30;11.30;;;;;;;4.40;81.13;96739.39;106635;1276;25478;-73
2024/02/18 03:21:26;;;;;;;16.20;10.60;;;;;;;4.46;81.34;96738.84;106616;1276;22642;-73
2024/02/18 03:23:54;;;;;;;21.30;12.30;;;;;;;4.51;81.33;96743.14;106607;1276;22526;-73
2024/02/18 03:26:23;;;;;;;21.80;12.90;;;;;;;4.50;80.94;96743.81;106401;1276;24215;-73
2024/02/18 03:28:51;;;;;;;20.10;11.00;;;;;;;4.50;81.14;96743.13;106610;1276;22544;-73
2024/02/18 03:31:20;;;;;;;18.80;11.30;;;;;;;4.52;80.96;96744.38;106443;1276;25223;-73
2024/02/18 03:33:48;;;;;;;20.60;12.50;;;;;;;4.48;81.12;96748.14;106666;1276;25307;-73
2024/02/18 03:36:16;;;;;;;21.60;13.30;;;;;;;4.47;80.89;96752.11;106579;1276;23895;-73
2024/02/18 03:38:45;;;;;;;20.90;12.80;;;;;;;4.44;81.15;96754.66;106858;1276;22546;-73
2024/02/18 03:41:13;;;;;;;22.10;13.50;;;;;;;4.45;81.17;96753.80;106436;1276;22541;-73
2024/02/18 03:43:41;;;;;;;18.40;11.60;;;;;;;4.48;80.96;96759.27;106644;1276;22647;-73
2024/02/18 03:46:09;;;;;;;21.00;13.20;;;;;;;4.50;80.87;96757.77;106641;1276;24350;-73
2024/02/18 03:48:38;;;;;;;19.60;12.00;;;;;;;4.51;80.56;96756.21;106588;1276;24322;-72
2024/02/18 03:51:06;;;;;;;21.50;13.10;;;;;;;4.49;80.34;96758.95;106616;1276;24387;-73
2024/02/18 03:53:34;;;;;;;18.50;11.20;;;;;;;4.48;80.15;96758.92;106651;1276;22523;-73
2024/02/18 03:56:03;;;;;;;17.80;11.00;;;;;;;4.41;80.21;96755.62;106576;1276;24395;-73
2024/02/18 03:58:31;;;;;;;18.10;10.60;;;;;;;4.27;80.46;96750.23;106653;1276;23892;-73
2024/02/18 04:01:00;;;;;;;18.10;11.50;;;;;;;4.19;80.44;96755.77;106574;1276;22530;-73
2024/02/18 04:03:28;;;;;;;15.20;10.30;;;;;;;4.14;80.32;96755.14;106601;1276;22873;-73
2024/02/18 04:05:56;;;;;;;22.90;12.50;;;;;;;4.05;80.79;96754.92;106659;1276;22521;-73
2024/02/18 04:08:24;;;;;;;21.20;10.80;;;;;;;4.03;80.76;96757.47;106621;1276;22679;-73
2024/02/18 04:10:53;;;;;;;26.50;16.40;;;;;;;4.01;81.40;96768.75;106580;1276;25399;-73
2024/02/18 04:13:21;;;;;;;21.40;14.40;;;;;;;3.99;81.75;96772.36;106628;1276;25323;-73
2024/02/18 04:15:49;;;;;;;20.10;12.50;;;;;;;3.95;82.00;96771.90;106617;1276;22544;-73
2024/02/18 04:18:17;;;;;;;21.70;12.50;;;;;;;3.91;82.09;96773.71;106566;1276;23932;-73
2024/02/18 04:20:46;;;;;;;18.40;11.90;;;;;;;3.94;81.79;96779.19;106650;1276;22665;-73
2024/02/18 04:23:14;;;;;;;17.60;11.30;;;;;;;3.95;81.73;96778.17;106631;1276;22581;-72
2024/02/18 04:25:42;;;;;;;15.30;10.70;;;;;;;3.97;81.74;96777.50;106603;1276;22653;-73
2024/02/18 04:28:10;;;;;;;13.50;9.30;;;;;;;3.97;81.77;96777.87;106645;1270;24208;-72
2024/02/18 04:30:39;;;;;;;18.20;12.00;;;;;;;3.96;81.86;96775.75;106648;1276;22540;-72
2024/02/18 04:33:07;;;;;;;15.50;10.60;;;;;;;3.96;82.28;96777.49;106627;1276;22641;-73
2024/02/18 04:35:36;;;;;;;18.10;10.40;;;;;;;3.99;82.12;96777.57;106615;1270;22787;-73
2024/02/18 04:38:04;;;;;;;30.70;15.60;;;;;;;3.99;81.81;96776.36;106637;1276;22784;-73
2024/02/18 04:40:32;;;;;;;16.40;10.20;;;;;;;4.00;82.01;96781.78;106661;1276;25548;-73
2024/02/18 04:43:00;;;;;;;18.00;10.20;;;;;;;4.00;82.10;96783.89;106600;1276;23915;-73
2024/02/18 04:45:29;;;;;;;16.10;10.50;;;;;;;4.03;82.03;96781.52;106596;1276;22524;-73
2024/02/18 04:47:57;;;;;;;19.40;11.70;;;;;;;4.08;82.17;96781.47;106755;1276;22534;-73
2024/02/18 04:50:26;;;;;;;16.10;9.70;;;;;;;4.13;82.03;96787.34;106614;1276;24377;-73
2024/02/18 04:52:54;;;;;;;16.10;9.30;;;;;;;4.15;82.61;96784.41;106591;1276;22553;-72
2024/02/18 04:55:22;;;;;;;15.20;9.10;;;;;;;4.16;82.82;96786.16;106632;1276;24257;-74
2024/02/18 04:57:51;;;;;;;13.30;9.40;;;;;;;4.11;82.77;96779.45;106705;1276;24024;-73
2024/02/18 05:00:19;;;;;;;15.30;9.60;;;;;;;4.16;82.91;96778.69;106590;1276;22527;-73
2024/02/18 05:02:48;;;;;;;14.50;8.50;;;;;;;4.18;82.65;96781.87;106700;1276;22808;-73
2024/02/18 05:05:16;;;;;;;16.90;10.00;;;;;;;4.16;82.85;96782.52;106623;1276;22532;-73
2024/02/18 05:07:44;;;;;;;56.70;32.50;;;;;;;4.13;83.22;96782.80;106454;1276;22527;-73
2024/02/18 05:10:13;;;;;;;31.10;16.60;;;;;;;4.17;83.61;96785.34;106614;1276;22531;-73
2024/02/18 05:12:41;;;;;;;16.80;10.30;;;;;;;4.20;83.04;96784.38;106616;1276;25243;-72
2024/02/18 05:15:09;;;;;;;14.30;9.50;;;;;;;4.14;82.51;96786.14;106627;1276;24257;-72
2024/02/18 05:17:39;;;;;;;13.60;9.10;;;;;;;4.10;82.79;96786.73;106658;1276;22544;-73
2024/02/18 05:20:09;;;;;;;13.40;8.50;;;;;;;4.05;83.30;96781.91;106661;1276;24333;-72
2024/02/18 05:22:41;;;;;;;22.00;12.50;;;;;;;4.02;83.19;96787.23;106665;1276;24715;-73
2024/02/18 05:25:10;;;;;;;14.10;9.20;;;;;;;3.96;83.07;96788.10;106644;1276;25357;-73
2024/02/18 05:27:38;;;;;;;15.10;9.60;;;;;;;3.90;83.15;96790.56;106629;1276;22795;-73
2024/02/18 05:30:07;;;;;;;18.70;11.20;;;;;;;3.86;83.33;96791.34;106633;1276;22529;-73
2024/02/18 05:32:36;;;;;;;13.00;8.20;;;;;;;3.86;83.53;96791.33;106662;1276;25297;-72
2024/02/18 05:35:05;;;;;;;11.70;7.70;;;;;;;3.81;83.33;96795.73;106478;1276;22536;-73
2024/02/18 05:37:39;;;;;;;12.90;8.10;;;;;;;3.69;82.90;96798.52;106658;1276;22527;-72
2024/02/18 05:40:08;;;;;;;15.40;8.70;;;;;;;3.63;83.27;96807.08;106633;1276;22545;-72
2024/02/18 05:42:36;;;;;;;14.60;9.70;;;;;;;3.66;83.69;96807.67;106640;1276;22535;-73
2024/02/18 05:45:05;;;;;;;13.20;8.50;;;;;;;3.73;83.66;96810.83;106634;1276;24392;-72
2024/02/18 05:47:34;;;;;;;14.20;9.20;;;;;;;3.74;83.46;96808.59;106569;1276;22658;-73
2024/02/18 05:50:03;;;;;;;14.80;9.70;;;;;;;3.81;83.95;96808.95;106635;1276;22537;-72
2024/02/18 05:52:32;;;;;;;18.80;11.80;;;;;;;3.84;83.41;96811.64;106852;1276;25233;-73
2024/02/18 05:55:00;;;;;;;22.80;13.10;;;;;;;3.80;83.10;96816.76;106595;1266;22534;-72
2024/02/18 05:57:29;;;;;;;21.50;13.70;;;;;;;3.77;83.11;96817.55;106642;1276;24221;-73
2024/02/18 05:59:57;;;;;;;14.20;9.80;;;;;;;3.79;83.19;96819.50;106608;1276;22550;-72
2024/02/18 06:02:25;;;;;;;16.10;10.80;;;;;;;3.83;83.46;96821.69;106589;1276;22530;-73
2024/02/18 06:04:53;;;;;;;16.60;9.50;;;;;;;3.88;83.54;96820.80;106688;1276;22775;-73
2024/02/18 06:07:22;;;;;;;13.10;8.50;;;;;;;3.89;84.46;96821.17;106605;1276;22530;-72
2024/02/18 06:09:50;;;;;;;17.70;10.40;;;;;;;3.89;83.87;96823.60;106617;1276;22642;-73
2024/02/18 06:12:18;;;;;;;11.60;7.60;;;;;;;3.93;83.91;96825.48;106612;1276;22656;-73
2024/02/18 06:14:47;;;;;;;14.60;10.40;;;;;;;3.94;83.65;96822.87;106643;1276;23687;-72
2024/02/18 06:17:15;;;;;;;21.80;12.70;;;;;;;3.99;84.21;96830.67;106591;1276;22534;-73
2024/02/18 06:19:43;;;;;;;18.00;11.00;;;;;;;4.07;84.23;96828.63;106570;1276;25325;-73
2024/02/18 06:22:12;;;;;;;23.00;14.60;;;;;;;4.16;84.17;96827.63;106595;1276;22523;-73
2024/02/18 06:24:40;;;;;;;24.20;14.50;;;;;;;4.30;85.84;96830.44;106591;1267;25214;-73
2024/02/18 06:27:09;;;;;;;34.30;20.90;;;;;;;4.46;86.13;96834.33;106661;1276;22649;-73
2024/02/18 06:29:37;;;;;;;57.70;27.90;;;;;;;4.55;86.39;96839.95;106637;1273;22534;-73
2024/02/18 06:32:06;;;;;;;66.70;31.30;;;;;;;4.61;86.08;96839.22;106597;1276;22527;-73
2024/02/18 06:34:34;;;;;;;65.30;31.10;;;;;;;4.67;85.59;96836.41;106605;1276;22528;-73
2024/02/18 06:37:03;;;;;;;59.10;31.20;;;;;;;4.73;85.24;96837.75;106620;1276;22570;-73
2024/02/18 06:39:31;;;;;;;54.20;26.00;;;;;;;4.80;85.05;96836.89;106595;1276;23149;-72
2024/02/18 06:41:59;;;;;;;52.50;26.30;;;;;;;4.86;85.38;96837.56;106586;1276;25391;-73
2024/02/18 06:44:27;;;;;;;51.20;25.40;;;;;;;4.93;85.24;96836.15;106653;1276;22531;-73
2024/02/18 06:46:56;;;;;;;57.90;31.00;;;;;;;5.00;85.19;96835.96;106590;1276;25396;-73
2024/02/18 06:49:24;;;;;;;53.80;30.70;;;;;;;5.08;85.11;96839.11;106611;1276;22526;-72
2024/02/18 06:51:52;;;;;;;46.80;27.70;;;;;;;5.17;85.02;96844.72;106592;1276;24369;-73
2024/02/18 06:54:21;;;;;;;42.30;25.20;;;;;;;5.24;84.93;96847.30;106623;1276;22646;-73
2024/02/18 06:56:49;;;;;;;47.60;27.30;;;;;;;5.30;84.52;96848.66;106717;1276;22555;-73
2024/02/18 06:59:18;;;;;;;33.40;21.60;;;;;;;5.34;84.31;96847.00;106658;1276;22747;-73
2024/02/18 07:01:47;;;;;;;42.80;24.70;;;;;;;5.34;84.22;96844.05;106641;1276;22533;-72
2024/02/18 07:04:15;;;;;;;47.40;25.70;;;;;;;5.37;84.28;96842.17;106668;1276;23348;-72
2024/02/18 07:06:44;;;;;;;32.00;19.70;;;;;;;5.43;84.31;96845.27;106661;1276;24238;-73
2024/02/18 07:09:12;;;;;;;30.50;19.50;;;;;;;5.47;84.26;96843.45;106670;1276;24375;-73
2024/02/18 07:11:41;;;;;;;30.00;19.00;;;;;;;5.53;84.19;96842.01;106617;1276;22549;-73
2024/02/18 07:14:09;;;;;;;34.20;20.60;;;;;;;5.54;84.23;96841.31;106637;1276;24390;-73
2024/02/18 07:16:37;;;;;;;28.00;18.00;;;;;;;5.53;84.38;96839.21;106626;1266;22530;-73
2024/02/18 07:19:07;;;;;;;31.20;18.50;;;;;;;5.54;84.40;96848.30;106578;1276;25639;-73
2024/02/18 07:21:36;;;;;;;39.70;23.50;;;;;;;5.56;84.13;96846.77;106605;1276;22773;-73
2024/02/18 07:24:06;;;;;;;32.90;20.40;;;;;;;5.58;84.13;96846.30;106621;1276;24273;-73
2024/02/18 07:26:37;;;;;;;31.50;19.50;;;;;;;5.60;84.76;96842.86;106610;1276;22523;-73
2024/02/18 07:29:05;;;;;;;40.00;23.90;;;;;;;5.61;85.10;96845.31;106636;1266;24412;-73
2024/02/18 07:31:36;;;;;;;34.80;21.10;;;;;;;5.68;84.90;96848.23;106641;1276;25458;-73
2024/02/18 07:34:06;;;;;;;34.40;20.40;;;;;;;5.73;84.59;96848.69;106559;1276;22534;-73
2024/02/18 07:36:34;;;;;;;32.80;19.60;;;;;;;5.76;84.79;96850.67;106654;1276;23931;-73
2024/02/18 07:39:03;;;;;;;39.20;22.50;;;;;;;5.78;84.75;96852.98;106592;1276;24339;-73
2024/02/18 07:41:31;;;;;;;36.00;21.70;;;;;;;5.80;84.42;96849.38;106627;1276;25217;-73
2024/02/18 07:44:00;;;;;;;35.70;22.10;;;;;;;5.80;84.64;96845.35;106700;1276;24211;-73
2024/02/18 07:46:28;;;;;;;37.30;20.30;;;;;;;5.86;84.65;96841.27;106647;1276;22526;-73
2024/02/18 07:48:56;;;;;;;31.70;18.80;;;;;;;5.95;84.80;96840.08;106635;1276;22616;-73
2024/02/18 07:51:28;;;;;;;34.90;20.00;;;;;;;6.05;84.58;96840.81;106633;1264;24374;-73
2024/02/18 07:53:57;;;;;;;33.30;20.90;;;;;;;6.11;84.11;96839.52;106661;1276;24210;-72
2024/02/18 07:56:25;;;;;;;29.60;17.80;;;;;;;6.07;83.76;96837.70;106640;1276;24324;-73
2024/02/18 07:58:53;;;;;;;32.40;19.10;;;;;;;6.01;83.69;96834.27;106626;1276;22530;-73
2024/02/18 08:01:21;;;;;;;30.60;20.10;;;;;;;5.99;83.80;96822.00;106632;1276;24475;-73
2024/02/18 08:03:50;;;;;;;30.00;17.70;;;;;;;5.93;83.98;96825.17;106593;1276;22552;-73
2024/02/18 08:06:18;;;;;;;29.40;18.70;;;;;;;5.87;83.88;96825.76;106635;1276;22593;-73
2024/02/18 08:08:46;;;;;;;30.60;18.10;;;;;;;5.79;84.45;96832.23;106602;1276;24231;-72
2024/02/18 08:11:15;;;;;;;30.10;18.30;;;;;;;5.76;84.46;96838.45;106689;1276;24234;-73
2024/02/18 08:13:43;;;;;;;33.50;20.40;;;;;;;5.78;84.69;96842.34;106648;1276;23913;-72
2024/02/18 08:16:12;;;;;;;38.50;22.90;;;;;;;5.87;85.06;96842.86;106580;1266;25323;-73
2024/02/18 08:18:40;;;;;;;30.40;19.30;;;;;;;6.08;85.50;96845.22;106466;1276;22548;-73
2024/02/18 08:21:09;;;;;;;36.00;22.30;;;;;;;6.32;84.38;96846.89;106643;1276;24281;-73
2024/02/18 08:23:37;;;;;;;32.20;20.40;;;;;;;6.50;84.06;96843.36;106648;1276;24448;-73
2024/02/18 08:26:07;;;;;;;34.40;21.90;;;;;;;6.77;83.40;96836.64;106475;1266;22526;-73
2024/02/18 08:28:35;;;;;;;28.40;17.90;;;;;;;6.84;82.31;96836.92;106658;1276;25204;-74
2024/02/18 08:31:04;;;;;;;33.20;19.70;;;;;;;6.87;81.60;96834.35;106795;1276;25458;-73
2024/02/18 08:33:32;;;;;;;33.40;20.30;;;;;;;6.87;81.16;96835.75;106759;1276;25338;-73
2024/02/18 08:36:01;;;;;;;28.10;18.40;;;;;;;6.82;80.95;96841.09;106620;1276;25468;-73
2024/02/18 08:38:29;;;;;;;29.00;18.40;;;;;;;6.73;80.50;96843.23;106604;1276;22524;-72
2024/02/18 08:40:57;;;;;;;30.20;18.90;;;;;;;6.68;80.48;96843.48;106633;1276;25271;-73
2024/02/18 08:43:26;;;;;;;33.50;20.60;;;;;;;6.67;80.58;96850.13;106587;1276;22649;-73
2024/02/18 08:45:54;;;;;;;30.80;18.90;;;;;;;6.68;80.46;96845.77;106612;1276;25345;-73
2024/02/18 08:48:22;;;;;;;30.80;18.80;;;;;;;6.73;80.42;96851.27;106649;1276;25318;-73
2024/02/18 08:50:50;;;;;;;28.40;18.80;;;;;;;6.78;80.26;96852.21;106571;1276;22734;-73
2024/02/18 08:53:19;;;;;;;26.60;17.80;;;;;;;6.77;80.19;96852.55;106690;1276;22523;-73
2024/02/18 08:55:47;;;;;;;29.40;19.60;;;;;;;6.71;80.20;96859.27;106640;1276;25328;-73
2024/02/18 08:58:15;;;;;;;28.00;17.70;;;;;;;6.70;80.23;96856.81;106440;1276;25447;-72
2024/02/18 09:00:45;;;;;;;25.40;16.40;;;;;;;6.63;79.89;96862.45;106746;1276;25277;-72
2024/02/18 09:03:14;;;;;;;26.00;16.80;;;;;;;6.55;80.06;96859.88;106615;1253;24263;-72
2024/02/18 09:05:43;;;;;;;28.70;17.70;;;;;;;6.49;80.05;96863.81;106607;1276;22535;-73
2024/02/18 09:08:11;;;;;;;32.40;19.80;;;;;;;6.40;80.05;96862.59;106593;1276;25457;-72
2024/02/18 09:10:39;;;;;;;28.50;19.10;;;;;;;6.33;80.32;96868.58;106623;1276;24378;-73
2024/02/18 09:13:08;;;;;;;29.40;18.20;;;;;;;6.35;80.37;96873.51;106667;1276;24259;-73
2024/02/18 09:15:36;;;;;;;30.90;19.50;;;;;;;6.40;80.41;96874.83;106685;1276;25459;-72
2024/02/18 09:18:04;;;;;;;33.10;20.80;;;;;;;6.45;80.09;96878.93;106597;1276;22656;-73
2024/02/18 09:20:34;;;;;;;30.90;20.30;;;;;;;6.45;79.94;96875.61;106626;1272;23607;-72
2024/02/18 09:23:02;;;;;;;30.10;19.10;;;;;;;6.42;79.51;96877.48;106657;1276;22533;-73
2024/02/18 09:25:30;;;;;;;29.50;19.30;;;;;;;6.27;79.61;96880.70;106575;1276;22645;-73
2024/02/18 09:27:58;;;;;;;31.40;19.60;;;;;;;6.15;79.68;96885.54;106649;1260;23881;-73
2024/02/18 09:30:27;;;;;;;29.20;18.70;;;;;;;6.05;79.77;96885.51;106685;1276;25322;-73
2024/02/18 09:32:55;;;;;;;28.30;18.30;;;;;;;5.93;79.91;96889.83;106621;1276;22526;-73
2024/02/18 09:35:23;;;;;;;31.90;17.20;;;;;;;5.90;80.00;96896.89;106712;1272;22697;-73
2024/02/18 09:37:53;;;;;;;24.30;15.90;;;;;;;5.87;79.82;96901.02;106639;1276;25332;-72
2024/02/18 09:40:22;;;;;;;28.90;17.50;;;;;;;5.81;79.51;96896.36;106553;1276;22527;-73
2024/02/18 09:42:51;;;;;;;39.20;21.50;;;;;;;5.83;79.37;96896.40;106666;1276;25354;-73
2024/02/18 09:45:26;;;;;;;26.20;16.90;;;;;;;5.88;79.20;96893.70;106614;1276;23159;-72
2024/02/18 09:47:57;;;;;;;22.60;15.00;;;;;;;5.96;78.84;96886.92;106778;1276;22600;-72
2024/02/18 09:50:27;;;;;;;24.50;14.70;;;;;;;6.06;78.47;96886.59;106861;1276;24199;-73
2024/02/18 09:52:56;;;;;;;23.40;15.20;;;;;;;6.18;78.32;96886.30;106910;1276;24203;-72
2024/02/18 09:55:24;;;;;;;23.10;14.60;;;;;;;6.31;77.49;96874.66;106802;1253;25478;-73
2024/02/18 09:57:53;;;;;;;20.20;13.00;;;;;;;6.54;77.17;96874.55;106982;1276;22517;-73
2024/02/18 10:00:22;;;;;;;23.30;14.10;;;;;;;6.82;76.34;96874.14;106903;1276;22569;-73
2024/02/18 10:02:51;;;;;;;19.80;12.10;;;;;;;7.12;75.04;96872.17;106773;1276;25395;-73
2024/02/18 10:05:20;;;;;;;17.70;11.60;;;;;;;7.47;73.98;96864.81;106619;1276;22650;-73
2024/02/18 10:08:00;;;;;;;17.10;12.00;;;;;;;7.69;72.76;96862.65;106710;1276;24334;-73
2024/02/18 10:10:33;;;;;;;18.20;11.70;;;;;;;7.66;71.32;96865.95;106729;1261;23700;-73
2024/02/18 10:13:04;;;;;;;17.40;11.60;;;;;;;7.81;71.83;96866.83;106738;1276;25526;-73
2024/02/18 10:15:34;;;;;;;17.90;11.60;;;;;;;8.11;70.71;96862.65;106776;1276;24361;-73
2024/02/18 10:18:02;;;;;;;16.80;11.10;;;;;;;8.43;69.51;96864.41;106913;1276;23393;-73
2024/02/18 10:20:31;;;;;;;18.70;12.30;;;;;;;8.70;69.32;96866.60;106625;1276;23014;-72
2024/02/18 10:22:59;;;;;;;23.30;14.00;;;;;;;8.77;68.06;96863.67;106897;1276;22527;-72
2024/02/18 10:25:27;;;;;;;21.20;13.20;;;;;;;8.85;67.44;96859.02;106818;1276;24449;-73
2024/02/18 10:27:59;;;;;;;22.00;13.90;;;;;;;8.89;67.33;96860.46;106927;1276;22534;-73
2024/02/18 10:30:29;;;;;;;20.80;13.90;;;;;;;8.95;67.10;96857.52;106689;1276;22593;-72
2024/02/18 10:32:58;;;;;;;21.40;14.80;;;;;;;8.87;66.99;96853.24;106667;1276;22582;-72
2024/02/18 10:35:26;;;;;;;24.90;16.70;;;;;;;8.77;67.09;96855.27;106599;1276;22543;-72
2024/02/18 10:37:56;;;;;;;20.70;13.70;;;;;;;8.76;66.80;96851.75;106615;1264;24186;-73
2024/02/18 10:40:39;;;;;;;23.50;16.10;;;;;;;8.95;66.62;96846.30;106703;1276;25277;-73
2024/02/18 10:43:12;;;;;;;19.50;13.80;;;;;;;9.23;65.11;96841.23;106574;1276;24333;-72
2024/02/18 10:45:41;;;;;;;18.90;13.70;;;;;;;9.50;64.57;96843.15;106667;1276;22529;-71
2024/02/18 10:48:11;;;;;;;18.20;11.90;;;;;;;9.92;64.19;96841.59;106867;1276;25268;-71
2024/02/18 10:50:45;;;;;;;16.40;11.90;;;;;;;10.44;63.65;96840.89;106920;1276;22519;-72
2024/02/18 10:53:25;;;;;;;17.40;12.40;;;;;;;10.92;61.08;96836.02;106709;1269;24368;-72
2024/02/18 10:56:05;;;;;;;19.60;13.90;;;;;;;11.28;60.36;96824.20;106601;1276;22548;-72
2024/02/18 10:59:04;;;;;;;15.50;12.10;;;;;;;11.60;58.74;96820.94;106575;1276;25291;-72
2024/02/18 11:01:41;;;;;;;17.80;12.20;;;;;;;11.75;56.69;96815.77;106782;1276;25411;-72
2024/02/18 11:04:10;;;;;;;12.80;10.80;;;;;;;12.04;56.97;96810.23;106611;1276;22640;-72
2024/02/18 11:06:42;;;;;;;12.70;10.60;;;;;;;12.32;55.28;96809.02;106711;1276;22685;-72
2024/02/18 11:09:11;;;;;;;12.30;10.90;;;;;;;12.70;54.44;96807.86;106642;1276;22579;-72
2024/02/18 11:11:42;;;;;;;15.80;11.50;;;;;;;13.03;53.81;96804.61;106757;1276;22625;-72
2024/02/18 11:14:13;;;;;;;14.70;10.90;;;;;;;13.31;51.91;96807.19;106653;1276;25262;-72
2024/02/18 11:16:42;;;;;;;12.80;10.60;;;;;;;13.70;52.21;96807.49;106619;1276;22569;-72
2024/02/18 11:19:11;;;;;;;13.00;9.80;;;;;;;13.94;49.84;96805.09;106828;1276;22645;-73
2024/02/18 11:21:42;;;;;;;11.70;9.40;;;;;;;14.24;49.10;96804.88;106666;1276;24211;-72
2024/02/18 11:24:10;;;;;;;9.90;8.10;;;;;;;14.15;47.92;96802.51;106437;1276;23927;-73